sensor_id;sensor_type;location;lat;lon;timestamp;pressure;altitude;pressure_sealevel;temperature;humidity
82672;BME280;72378;52.468;13.432;2024-02-26T00:01:27;99955.56;;;13.11;45.37
82672;BME280;72378;52.468;13.432;2024-02-26T00:03:54;99957.47;;;13.04;46.29
82672;BME280;72378;52.468;13.432;2024-02-26T00:06:24;99968.97;;;12.86;46.77
82672;BME280;72378;52.468;13.432;2024-02-26T00:08:51;99961.72;;;12.80;47.43
82672;BME280;72378;52.468;13.432;2024-02-26T00:11:17;99962.09;;;12.90;46.77
82672;BME280;72378;52.468;13.432;2024-02-26T00:13:43;99964.75;;;13.10;46.67
82672;BME280;72378;52.468;13.432;2024-02-26T00:16:09;99955.06;;;13.58;44.87
82672;BME280;72378;52.468;13.432;2024-02-26T00:18:37;99952.16;;;13.22;45.57
82672;BME280;72378;52.468;13.432;2024-02-26T00:21:04;99951.06;;;12.79;47.28
82672;BME280;72378;52.468;13.432;2024-02-26T00:23:30;99945.66;;;12.79;47.27
82672;BME280;72378;52.468;13.432;2024-02-26T00:25:57;99936.03;;;12.76;47.79
82672;BME280;72378;52.468;13.432;2024-02-26T00:28:23;99940.47;;;12.71;48.08
82672;BME280;72378;52.468;13.432;2024-02-26T00:30:50;99946.41;;;12.35;48.17
82672;BME280;72378;52.468;13.432;2024-02-26T00:33:21;99947.25;;;12.16;49.33
82672;BME280;72378;52.468;13.432;2024-02-26T00:35:49;99945.16;;;12.24;49.42
82672;BME280;72378;52.468;13.432;2024-02-26T00:38:15;99934.16;;;12.06;49.99
82672;BME280;72378;52.468;13.432;2024-02-26T00:40:42;99935.59;;;12.02;49.13
82672;BME280;72378;52.468;13.432;2024-02-26T00:43:08;99940.97;;;12.35;49.00
82672;BME280;72378;52.468;13.432;2024-02-26T00:45:34;99937.81;;;12.45;48.66
82672;BME280;72378;52.468;13.432;2024-02-26T00:48:01;99935.19;;;12.18;49.12
82672;BME280;72378;52.468;13.432;2024-02-26T00:50:30;99929.94;;;12.30;49.10
82672;BME280;72378;52.468;13.432;2024-02-26T00:52:58;99923.31;;;12.06;48.91
82672;BME280;72378;52.468;13.432;2024-02-26T00:55:24;99924.97;;;11.94;49.24
82672;BME280;72378;52.468;13.432;2024-02-26T00:57:50;99922.47;;;11.93;49.31
82672;BME280;72378;52.468;13.432;2024-02-26T01:00:17;99925.19;;;11.67;50.48
82672;BME280;72378;52.468;13.432;2024-02-26T01:02:43;99926.44;;;12.03;49.44
82672;BME280;72378;52.468;13.432;2024-02-26T01:05:12;99913.25;;;11.55;50.82
82672;BME280;72378;52.468;13.432;2024-02-26T01:07:39;99931.13;;;11.23;51.71
82672;BME280;72378;52.468;13.432;2024-02-26T01:10:08;99922.50;;;11.86;49.12
82672;BME280;72378;52.468;13.432;2024-02-26T01:12:35;99918.75;;;11.68;49.96
82672;BME280;72378;52.468;13.432;2024-02-26T01:15:02;99926.84;;;11.81;50.32
82672;BME280;72378;52.468;13.432;2024-02-26T01:17:29;99921.84;;;11.84;49.63
82672;BME280;72378;52.468;13.432;2024-02-26T01:19:55;99928.94;;;11.85;49.53
82672;BME280;72378;52.468;13.432;2024-02-26T01:22:21;99926.66;;;11.69;50.22
82672;BME280;72378;52.468;13.432;2024-02-26T01:24:48;99925.34;;;11.39;51.28
82672;BME280;72378;52.468;13.432;2024-02-26T01:27:16;99919.66;;;10.54;52.77
82672;BME280;72378;52.468;13.432;2024-02-26T01:29:42;99914.41;;;10.12;54.69
82672;BME280;72378;52.468;13.432;2024-02-26T01:32:09;99915.50;;;10.52;53.74
82672;BME280;72378;52.468;13.432;2024-02-26T01:34:35;99915.41;;;11.66;50.13
82672;BME280;72378;52.468;13.432;2024-02-26T01:37:03;99906.03;;;11.81;49.75
82672;BME280;72378;52.468;13.432;2024-02-26T01:39:29;99912.66;;;11.53;50.61
82672;BME280;72378;52.468;13.432;2024-02-26T01:41:55;99910.41;;;11.69;50.49
82672;BME280;72378;52.468;13.432;2024-02-26T01:44:23;99911.03;;;11.78;49.33
82672;BME280;72378;52.468;13.432;2024-02-26T01:46:49;99906.19;;;11.60;50.14
82672;BME280;72378;52.468;13.432;2024-02-26T01:49:16;99915.53;;;11.45;50.46
82672;BME280;72378;52.468;13.432;2024-02-26T01:51:43;99911.19;;;11.44;51.68
82672;BME280;72378;52.468;13.432;2024-02-26T01:54:10;99911.41;;;11.68;50.26
82672;BME280;72378;52.468;13.432;2024-02-26T01:56:37;99912.69;;;11.72;50.75
82672;BME280;72378;52.468;13.432;2024-02-26T01:59:05;99918.31;;;11.71;50.54
82672;BME280;72378;52.468;13.432;2024-02-26T02:01:33;99914.53;;;11.52;50.82
82672;BME280;72378;52.468;13.432;2024-02-26T02:04:00;99917.06;;;11.73;50.60
82672;BME280;72378;52.468;13.432;2024-02-26T02:06:27;99861.22;;;11.66;49.42
82672;BME280;72378;52.468;13.432;2024-02-26T02:08:54;99922.06;;;11.83;49.49
82672;BME280;72378;52.468;13.432;2024-02-26T02:11:20;99927.84;;;11.41;50.62
82672;BME280;72378;52.468;13.432;2024-02-26T02:13:47;99911.66;;;11.80;49.11
82672;BME280;72378;52.468;13.432;2024-02-26T02:16:13;99917.88;;;11.54;50.25
82672;BME280;72378;52.468;13.432;2024-02-26T02:18:41;99921.94;;;11.17;51.65
82672;BME280;72378;52.468;13.432;2024-02-26T02:21:09;99919.25;;;11.17;51.54
82672;BME280;72378;52.468;13.432;2024-02-26T02:23:35;99908.25;;;11.19;51.55
82672;BME280;72378;52.468;13.432;2024-02-26T02:26:02;99917.34;;;11.05;52.77
82672;BME280;72378;52.468;13.432;2024-02-26T02:28:28;99919.38;;;10.83;53.01
82672;BME280;72378;52.468;13.432;2024-02-26T02:30:55;99924.13;;;10.81;52.48
82672;BME280;72378;52.468;13.432;2024-02-26T02:33:23;99923.66;;;10.65;52.89
82672;BME280;72378;52.468;13.432;2024-02-26T02:35:50;99923.19;;;11.15;51.29
82672;BME280;72378;52.468;13.432;2024-02-26T02:38:20;99922.53;;;11.00;52.08
82672;BME280;72378;52.468;13.432;2024-02-26T02:40:46;99921.91;;;11.04;51.43
82672;BME280;72378;52.468;13.432;2024-02-26T02:43:13;99932.50;;;10.93;51.73
82672;BME280;72378;52.468;13.432;2024-02-26T02:45:39;99927.03;;;10.33;52.97
82672;BME280;72378;52.468;13.432;2024-02-26T02:48:06;99932.09;;;10.49;53.08
82672;BME280;72378;52.468;13.432;2024-02-26T02:50:32;99933.19;;;10.27;53.04
82672;BME280;72378;52.468;13.432;2024-02-26T02:52:58;99927.66;;;10.35;53.00
82672;BME280;72378;52.468;13.432;2024-02-26T02:55:26;99937.75;;;10.20;54.04
82672;BME280;72378;52.468;13.432;2024-02-26T02:57:53;99929.97;;;10.38;53.22
82672;BME280;72378;52.468;13.432;2024-02-26T03:00:19;99933.41;;;10.25;53.22
82672;BME280;72378;52.468;13.432;2024-02-26T03:02:48;99936.88;;;10.13;53.55
82672;BME280;72378;52.468;13.432;2024-02-26T03:05:14;99930.19;;;10.43;52.59
82672;BME280;72378;52.468;13.432;2024-02-26T03:07:41;99929.50;;;10.07;53.69
82672;BME280;72378;52.468;13.432;2024-02-26T03:10:07;99930.06;;;10.23;53.18
82672;BME280;72378;52.468;13.432;2024-02-26T03:12:35;99933.97;;;10.48;52.21
82672;BME280;72378;52.468;13.432;2024-02-26T03:15:01;99933.81;;;10.22;53.33
82672;BME280;72378;52.468;13.432;2024-02-26T03:17:29;99934.03;;;10.61;51.55
82672;BME280;72378;52.468;13.432;2024-02-26T03:19:55;99934.06;;;10.68;51.92
82672;BME280;72378;52.468;13.432;2024-02-26T03:22:22;99926.91;;;10.54;51.99
82672;BME280;72378;52.468;13.432;2024-02-26T03:24:48;99929.84;;;10.59;51.81
82672;BME280;72378;52.468;13.432;2024-02-26T03:27:15;99928.88;;;10.73;51.31
82672;BME280;72378;52.468;13.432;2024-02-26T03:29:42;99928.44;;;10.69;51.39
82672;BME280;72378;52.468;13.432;2024-02-26T03:32:09;99925.44;;;10.45;51.98
82672;BME280;72378;52.468;13.432;2024-02-26T03:34:35;99917.28;;;10.38;52.03
82672;BME280;72378;52.468;13.432;2024-02-26T03:37:04;99921.53;;;10.60;51.59
82672;BME280;72378;52.468;13.432;2024-02-26T03:39:30;99918.22;;;10.58;51.10
82672;BME280;72378;52.468;13.432;2024-02-26T03:41:56;99910.13;;;10.24;52.54
82672;BME280;72378;52.468;13.432;2024-02-26T03:44:23;99922.63;;;10.32;52.09
82672;BME280;72378;52.468;13.432;2024-02-26T03:46:50;99931.31;;;10.55;51.09
82672;BME280;72378;52.468;13.432;2024-02-26T03:49:17;99935.84;;;10.14;52.53
82672;BME280;72378;52.468;13.432;2024-02-26T03:51:43;99933.16;;;10.54;50.99
82672;BME280;72378;52.468;13.432;2024-02-26T03:54:09;99934.06;;;10.27;52.02
82672;BME280;72378;52.468;13.432;2024-02-26T03:56:36;99931.94;;;10.23;52.58
82672;BME280;72378;52.468;13.432;2024-02-26T03:59:02;99936.56;;;10.29;52.22
82672;BME280;72378;52.468;13.432;2024-02-26T04:01:28;99930.41;;;10.41;51.68
82672;BME280;72378;52.468;13.432;2024-02-26T04:03:56;99936.22;;;10.11;52.86
82672;BME280;72378;52.468;13.432;2024-02-26T04:06:22;99941.78;;;10.37;51.93
82672;BME280;72378;52.468;13.432;2024-02-26T04:08:49;99945.78;;;10.41;51.66
82672;BME280;72378;52.468;13.432;2024-02-26T04:11:15;99942.47;;;10.45;51.92
82672;BME280;72378;52.468;13.432;2024-02-26T04:13:43;99944.59;;;10.50;51.71
82672;BME280;72378;52.468;13.432;2024-02-26T04:16:11;99953.88;;;10.41;51.68
82672;BME280;72378;52.468;13.432;2024-02-26T04:18:37;99953.88;;;10.41;51.70
82672;BME280;72378;52.468;13.432;2024-02-26T04:21:05;99945.22;;;10.18;52.94
82672;BME280;72378;52.468;13.432;2024-02-26T04:23:32;99953.00;;;10.34;52.07
82672;BME280;72378;52.468;13.432;2024-02-26T04:25:58;99945.97;;;10.39;52.26
82672;BME280;72378;52.468;13.432;2024-02-26T04:28:25;99941.69;;;10.51;51.61
82672;BME280;72378;52.468;13.432;2024-02-26T04:30:54;99949.47;;;10.74;50.68
82672;BME280;72378;52.468;13.432;2024-02-26T04:33:20;99959.50;;;10.80;50.63
82672;BME280;72378;52.468;13.432;2024-02-26T04:35:46;99962.53;;;10.64;50.96
82672;BME280;72378;52.468;13.432;2024-02-26T04:38:14;99962.97;;;10.67;51.18
82672;BME280;72378;52.468;13.432;2024-02-26T04:40:40;99977.66;;;10.52;51.53
82672;BME280;72378;52.468;13.432;2024-02-26T04:43:07;99980.94;;;10.47;52.00
82672;BME280;72378;52.468;13.432;2024-02-26T04:45:33;99979.50;;;10.45;52.81
82672;BME280;72378;52.468;13.432;2024-02-26T04:47:59;99980.53;;;10.50;52.47
82672;BME280;72378;52.468;13.432;2024-02-26T04:50:26;99984.50;;;10.48;52.61
82672;BME280;72378;52.468;13.432;2024-02-26T04:52:52;99983.84;;;10.80;51.78
82672;BME280;72378;52.468;13.432;2024-02-26T04:55:20;99982.50;;;10.63;51.79
82672;BME280;72378;52.468;13.432;2024-02-26T04:57:46;99971.63;;;10.50;51.99
82672;BME280;72378;52.468;13.432;2024-02-26T05:00:13;99970.63;;;10.64;52.26
82672;BME280;72378;52.468;13.432;2024-02-26T05:02:40;99972.88;;;10.54;52.18
82672;BME280;72378;52.468;13.432;2024-02-26T05:05:07;99973.31;;;10.98;50.82
82672;BME280;72378;52.468;13.432;2024-02-26T05:07:34;99982.25;;;10.98;50.43
82672;BME280;72378;52.468;13.432;2024-02-26T05:10:05;99985.97;;;10.91;51.24
82672;BME280;72378;52.468;13.432;2024-02-26T05:12:33;99984.81;;;10.66;51.98
82672;BME280;72378;52.468;13.432;2024-02-26T05:15:01;100002.00;;;10.52;52.55
82672;BME280;72378;52.468;13.432;2024-02-26T05:17:28;99994.91;;;10.51;52.45
82672;BME280;72378;52.468;13.432;2024-02-26T05:19:54;99997.06;;;10.62;52.65
82672;BME280;72378;52.468;13.432;2024-02-26T05:22:20;100004.06;;;10.50;52.24
82672;BME280;72378;52.468;13.432;2024-02-26T05:24:47;100001.38;;;10.90;51.64
82672;BME280;72378;52.468;13.432;2024-02-26T05:27:13;100006.50;;;10.79;51.36
82672;BME280;72378;52.468;13.432;2024-02-26T05:29:41;100002.78;;;10.80;51.75
82672;BME280;72378;52.468;13.432;2024-02-26T05:32:07;100007.66;;;10.57;51.79
82672;BME280;72378;52.468;13.432;2024-02-26T05:34:33;100013.41;;;10.88;51.15
82672;BME280;72378;52.468;13.432;2024-02-26T05:37:00;100008.00;;;10.88;51.56
82672;BME280;72378;52.468;13.432;2024-02-26T05:39:26;100004.06;;;10.50;52.84
82672;BME280;72378;52.468;13.432;2024-02-26T05:41:52;100010.91;;;10.52;52.29
82672;BME280;72378;52.468;13.432;2024-02-26T05:44:19;100012.91;;;10.71;51.95
82672;BME280;72378;52.468;13.432;2024-02-26T05:46:46;100010.09;;;10.52;52.92
82672;BME280;72378;52.468;13.432;2024-02-26T05:49:13;100016.63;;;10.70;52.47
82672;BME280;72378;52.468;13.432;2024-02-26T05:51:39;100020.50;;;10.89;51.64
82672;BME280;72378;52.468;13.432;2024-02-26T05:54:05;100007.53;;;10.78;51.94
82672;BME280;72378;52.468;13.432;2024-02-26T05:56:33;100020.69;;;10.87;51.75
82672;BME280;72378;52.468;13.432;2024-02-26T05:59:00;100019.94;;;10.66;51.92
82672;BME280;72378;52.468;13.432;2024-02-26T06:01:26;100031.47;;;10.81;51.62
82672;BME280;72378;52.468;13.432;2024-02-26T06:03:55;100032.53;;;10.80;51.56
82672;BME280;72378;52.468;13.432;2024-02-26T06:06:22;100037.13;;;10.86;51.54
82672;BME280;72378;52.468;13.432;2024-02-26T06:08:48;100034.63;;;10.84;51.32
82672;BME280;72378;52.468;13.432;2024-02-26T06:11:15;100041.72;;;10.85;52.20
82672;BME280;72378;52.468;13.432;2024-02-26T06:13:41;100035.94;;;10.61;52.48
82672;BME280;72378;52.468;13.432;2024-02-26T06:16:08;100039.25;;;10.90;52.31
82672;BME280;72378;52.468;13.432;2024-02-26T06:18:34;100035.16;;;11.07;51.56
82672;BME280;72378;52.468;13.432;2024-02-26T06:21:02;100039.56;;;11.15;51.44
82672;BME280;72378;52.468;13.432;2024-02-26T06:23:28;100039.16;;;11.18;51.33
82672;BME280;72378;52.468;13.432;2024-02-26T06:25:54;100041.81;;;11.05;51.31
82672;BME280;72378;52.468;13.432;2024-02-26T06:28:21;100041.84;;;11.11;52.22
82672;BME280;72378;52.468;13.432;2024-02-26T06:30:47;100044.91;;;11.49;51.30
82672;BME280;72378;52.468;13.432;2024-02-26T06:33:15;100032.88;;;11.65;50.57
82672;BME280;72378;52.468;13.432;2024-02-26T06:35:41;100043.78;;;11.97;49.15
82672;BME280;72378;52.468;13.432;2024-02-26T06:38:10;100058.38;;;12.22;48.58
82672;BME280;72378;52.468;13.432;2024-02-26T06:40:38;100047.50;;;12.68;48.32
82672;BME280;72378;52.468;13.432;2024-02-26T06:43:04;100062.56;;;12.45;48.03
82672;BME280;72378;52.468;13.432;2024-02-26T06:45:31;100060.28;;;13.38;45.93
82672;BME280;72378;52.468;13.432;2024-02-26T06:47:57;100067.91;;;12.97;46.16
82672;BME280;72378;52.468;13.432;2024-02-26T06:50:24;100063.75;;;12.81;46.12
82672;BME280;72378;52.468;13.432;2024-02-26T06:52:50;100064.88;;;13.37;45.03
82672;BME280;72378;52.468;13.432;2024-02-26T06:55:18;100068.63;;;13.81;44.83
82672;BME280;72378;52.468;13.432;2024-02-26T06:57:44;100070.84;;;14.28;43.11
82672;BME280;72378;52.468;13.432;2024-02-26T07:00:11;100070.91;;;14.89;41.67
82672;BME280;72378;52.468;13.432;2024-02-26T07:02:40;100073.34;;;14.54;42.04
82672;BME280;72378;52.468;13.432;2024-02-26T07:05:07;100069.78;;;14.78;41.86
82672;BME280;72378;52.468;13.432;2024-02-26T07:07:33;100086.00;;;15.09;41.33
82672;BME280;72378;52.468;13.432;2024-02-26T07:09:59;100080.03;;;15.19;40.31
82672;BME280;72378;52.468;13.432;2024-02-26T07:12:29;100089.09;;;16.15;37.63
82672;BME280;72378;52.468;13.432;2024-02-26T07:14:56;100098.94;;;17.38;35.68
82672;BME280;72378;52.468;13.432;2024-02-26T07:17:23;100093.59;;;17.31;35.80
82672;BME280;72378;52.468;13.432;2024-02-26T07:19:49;100095.34;;;17.37;35.90
82672;BME280;72378;52.468;13.432;2024-02-26T07:22:15;100091.25;;;16.65;36.72
82672;BME280;72378;52.468;13.432;2024-02-26T07:24:41;100091.84;;;16.26;37.67
82672;BME280;72378;52.468;13.432;2024-02-26T07:27:08;100084.09;;;16.87;36.27
82672;BME280;72378;52.468;13.432;2024-02-26T07:29:35;100095.34;;;17.49;35.42
82672;BME280;72378;52.468;13.432;2024-02-26T07:32:02;100088.69;;;17.56;34.88
82672;BME280;72378;52.468;13.432;2024-02-26T07:34:28;100095.13;;;17.90;34.34
82672;BME280;72378;52.468;13.432;2024-02-26T07:36:55;100092.53;;;17.72;34.65
82672;BME280;72378;52.468;13.432;2024-02-26T07:39:22;100084.44;;;17.77;34.30
82672;BME280;72378;52.468;13.432;2024-02-26T07:41:48;100091.63;;;17.66;34.75
82672;BME280;72378;52.468;13.432;2024-02-26T07:44:16;100087.72;;;18.18;34.38
82672;BME280;72378;52.468;13.432;2024-02-26T07:46:44;100088.53;;;18.19;34.08
82672;BME280;72378;52.468;13.432;2024-02-26T07:49:10;100086.91;;;17.90;34.69
82672;BME280;72378;52.468;13.432;2024-02-26T07:51:37;100086.13;;;18.22;34.33
82672;BME280;72378;52.468;13.432;2024-02-26T07:54:03;100091.78;;;18.77;33.20
82672;BME280;72378;52.468;13.432;2024-02-26T07:56:29;100092.69;;;18.83;33.28
82672;BME280;72378;52.468;13.432;2024-02-26T07:58:56;100090.09;;;18.43;33.31
82672;BME280;72378;52.468;13.432;2024-02-26T08:01:22;100086.47;;;18.54;33.63
82672;BME280;72378;52.468;13.432;2024-02-26T08:03:52;100088.28;;;18.20;34.37
82672;BME280;72378;52.468;13.432;2024-02-26T08:06:18;100099.19;;;17.76;35.02
82672;BME280;72378;52.468;13.432;2024-02-26T08:08:45;100103.06;;;17.52;35.52
82672;BME280;72378;52.468;13.432;2024-02-26T08:11:11;100089.56;;;16.87;36.22
82672;BME280;72378;52.468;13.432;2024-02-26T08:13:37;100100.41;;;16.00;38.44
82672;BME280;72378;52.468;13.432;2024-02-26T08:16:05;100105.97;;;16.35;37.98
82672;BME280;72378;52.468;13.432;2024-02-26T08:18:31;100111.69;;;16.03;39.32
82672;BME280;72378;52.468;13.432;2024-02-26T08:20:59;100108.13;;;16.44;38.73
82672;BME280;72378;52.468;13.432;2024-02-26T08:23:25;100098.81;;;16.63;37.84
82672;BME280;72378;52.468;13.432;2024-02-26T08:25:51;100098.59;;;17.23;36.82
82672;BME280;72378;52.468;13.432;2024-02-26T08:28:18;100091.34;;;17.05;36.71
82672;BME280;72378;52.468;13.432;2024-02-26T08:30:44;100098.50;;;17.97;35.83
82672;BME280;72378;52.468;13.432;2024-02-26T08:33:11;100100.97;;;19.04;32.91
82672;BME280;72378;52.468;13.432;2024-02-26T08:35:38;100101.50;;;19.83;31.70
82672;BME280;72378;52.468;13.432;2024-02-26T08:38:06;100105.25;;;19.98;31.52
82672;BME280;72378;52.468;13.432;2024-02-26T08:40:32;100104.81;;;19.85;31.39
82672;BME280;72378;52.468;13.432;2024-02-26T08:42:58;100094.72;;;20.70;30.63
82672;BME280;72378;52.468;13.432;2024-02-26T08:45:25;100095.78;;;20.64;31.10
82672;BME280;72378;52.468;13.432;2024-02-26T08:47:52;100090.91;;;20.39;30.94
82672;BME280;72378;52.468;13.432;2024-02-26T08:50:18;100091.75;;;19.48;32.61
82672;BME280;72378;52.468;13.432;2024-02-26T08:52:44;100098.44;;;20.91;30.48
82672;BME280;72378;52.468;13.432;2024-02-26T08:55:16;100093.91;;;21.01;30.20
82672;BME280;72378;52.468;13.432;2024-02-26T08:57:43;100097.47;;;21.43;29.26
82672;BME280;72378;52.468;13.432;2024-02-26T09:00:10;100086.81;;;22.59;27.49
82672;BME280;72378;52.468;13.432;2024-02-26T09:02:37;100090.34;;;22.34;27.83
82672;BME280;72378;52.468;13.432;2024-02-26T09:05:04;100092.88;;;23.01;27.30
82672;BME280;72378;52.468;13.432;2024-02-26T09:07:30;100092.59;;;23.28;26.51
82672;BME280;72378;52.468;13.432;2024-02-26T09:09:57;100087.38;;;22.81;27.02
82672;BME280;72378;52.468;13.432;2024-02-26T09:12:24;100088.44;;;22.35;27.86
82672;BME280;72378;52.468;13.432;2024-02-26T09:14:51;100086.28;;;22.72;27.33
82672;BME280;72378;52.468;13.432;2024-02-26T09:17:17;100092.59;;;21.09;30.11
82672;BME280;72378;52.468;13.432;2024-02-26T09:19:43;100093.44;;;20.83;30.29
82672;BME280;72378;52.468;13.432;2024-02-26T09:22:09;100099.22;;;20.81;30.30
82672;BME280;72378;52.468;13.432;2024-02-26T09:24:36;100095.88;;;21.11;30.25
82672;BME280;72378;52.468;13.432;2024-02-26T09:27:02;100096.19;;;20.83;30.42
82672;BME280;72378;52.468;13.432;2024-02-26T09:29:30;100099.66;;;20.68;30.63
82672;BME280;72378;52.468;13.432;2024-02-26T09:31:56;100089.75;;;22.02;28.97
82672;BME280;72378;52.468;13.432;2024-02-26T09:34:23;100083.47;;;20.71;30.06
82672;BME280;72378;52.468;13.432;2024-02-26T09:36:50;100102.97;;;22.10;28.81
82672;BME280;72378;52.468;13.432;2024-02-26T09:39:16;100097.78;;;22.34;28.25
82672;BME280;72378;52.468;13.432;2024-02-26T09:41:46;100096.72;;;23.10;27.11
82672;BME280;72378;52.468;13.432;2024-02-26T09:44:13;100106.09;;;23.34;26.77
82672;BME280;72378;52.468;13.432;2024-02-26T09:46:42;100101.69;;;23.03;27.04
82672;BME280;72378;52.468;13.432;2024-02-26T09:49:09;100106.41;;;24.01;25.65
82672;BME280;72378;52.468;13.432;2024-02-26T09:51:37;100106.47;;;23.86;25.54
82672;BME280;72378;52.468;13.432;2024-02-26T09:54:07;100104.59;;;24.30;25.26
82672;BME280;72378;52.468;13.432;2024-02-26T09:56:35;100094.66;;;23.66;26.23
82672;BME280;72378;52.468;13.432;2024-02-26T09:59:06;100108.09;;;23.92;25.37
82672;BME280;72378;52.468;13.432;2024-02-26T10:01:34;100105.66;;;25.07;24.30
82672;BME280;72378;52.468;13.432;2024-02-26T10:04:03;100106.25;;;24.70;24.71
82672;BME280;72378;52.468;13.432;2024-02-26T10:06:30;100110.00;;;24.89;24.25
82672;BME280;72378;52.468;13.432;2024-02-26T10:08:56;100108.78;;;24.23;25.13
82672;BME280;72378;52.468;13.432;2024-02-26T10:11:24;100108.06;;;22.88;27.97
82672;BME280;72378;52.468;13.432;2024-02-26T10:13:50;100117.06;;;23.54;26.65
82672;BME280;72378;52.468;13.432;2024-02-26T10:16:16;100114.72;;;23.96;26.16
82672;BME280;72378;52.468;13.432;2024-02-26T10:18:50;100102.19;;;23.40;26.71
82672;BME280;72378;52.468;13.432;2024-02-26T10:21:18;100106.28;;;22.07;28.43
82672;BME280;72378;52.468;13.432;2024-02-26T10:23:46;100111.44;;;21.88;28.74
82672;BME280;72378;52.468;13.432;2024-02-26T10:26:13;100111.50;;;25.05;24.46
82672;BME280;72378;52.468;13.432;2024-02-26T10:28:41;100113.28;;;24.91;24.38
82672;BME280;72378;52.468;13.432;2024-02-26T10:31:09;100108.16;;;25.32;23.64
82672;BME280;72378;52.468;13.432;2024-02-26T10:33:35;100112.38;;;26.42;22.20
82672;BME280;72378;52.468;13.432;2024-02-26T10:36:02;100110.56;;;24.43;25.05
82672;BME280;72378;52.468;13.432;2024-02-26T10:38:31;100119.16;;;21.86;27.92
82672;BME280;72378;52.468;13.432;2024-02-26T10:40:58;100106.34;;;24.16;25.29
82672;BME280;72378;52.468;13.432;2024-02-26T10:43:25;100111.50;;;25.81;23.13
82672;BME280;72378;52.468;13.432;2024-02-26T10:45:51;100103.63;;;25.70;23.09
82672;BME280;72378;52.468;13.432;2024-02-26T10:48:18;100103.56;;;25.75;22.63
82672;BME280;72378;52.468;13.432;2024-02-26T10:50:45;100108.81;;;25.76;22.75
82672;BME280;72378;52.468;13.432;2024-02-26T10:53:16;100115.28;;;25.90;22.30
82672;BME280;72378;52.468;13.432;2024-02-26T10:55:48;100112.66;;;23.63;25.87
82672;BME280;72378;52.468;13.432;2024-02-26T10:58:16;100116.53;;;23.52;26.20
82672;BME280;72378;52.468;13.432;2024-02-26T11:00:43;100121.22;;;24.25;25.28
82672;BME280;72378;52.468;13.432;2024-02-26T11:03:10;100116.88;;;24.92;24.32
82672;BME280;72378;52.468;13.432;2024-02-26T11:05:38;100116.13;;;26.51;21.83
82672;BME280;72378;52.468;13.432;2024-02-26T11:08:06;100110.69;;;26.79;21.37
82672;BME280;72378;52.468;13.432;2024-02-26T11:10:33;100110.13;;;26.63;21.30
82672;BME280;72378;52.468;13.432;2024-02-26T11:13:01;100104.53;;;27.00;20.90
82672;BME280;72378;52.468;13.432;2024-02-26T11:15:28;100109.06;;;26.78;21.38
82672;BME280;72378;52.468;13.432;2024-02-26T11:17:58;100102.69;;;26.40;21.86
82672;BME280;72378;52.468;13.432;2024-02-26T11:20:25;100104.34;;;25.80;22.32
82672;BME280;72378;52.468;13.432;2024-02-26T11:22:53;100106.72;;;27.17;21.13
82672;BME280;72378;52.468;13.432;2024-02-26T11:25:19;100099.47;;;26.51;21.41
82672;BME280;72378;52.468;13.432;2024-02-26T11:27:47;100111.50;;;23.69;25.00
82672;BME280;72378;52.468;13.432;2024-02-26T11:30:17;100104.34;;;23.58;25.01
82672;BME280;72378;52.468;13.432;2024-02-26T11:32:44;100111.88;;;24.11;24.22
82672;BME280;72378;52.468;13.432;2024-02-26T11:35:12;100110.91;;;24.36;23.99
82672;BME280;72378;52.468;13.432;2024-02-26T11:37:40;100114.56;;;23.68;25.76
82672;BME280;72378;52.468;13.432;2024-02-26T11:40:10;100110.81;;;22.53;27.08
82672;BME280;72378;52.468;13.432;2024-02-26T11:42:43;100105.25;;;23.18;26.69
82672;BME280;72378;52.468;13.432;2024-02-26T11:48:23;100101.69;;;24.89;24.25
82672;BME280;72378;52.468;13.432;2024-02-26T11:50:51;100100.72;;;23.73;25.41
82672;BME280;72378;52.468;13.432;2024-02-26T11:53:26;100098.81;;;23.58;25.78
82672;BME280;72378;52.468;13.432;2024-02-26T11:56:12;100105.03;;;23.94;24.84
82672;BME280;72378;52.468;13.432;2024-02-26T11:58:39;100101.94;;;24.15;24.46
82672;BME280;72378;52.468;13.432;2024-02-26T12:01:05;100105.34;;;23.87;25.08
82672;BME280;72378;52.468;13.432;2024-02-26T12:03:33;100102.53;;;24.02;25.03
82672;BME280;72378;52.468;13.432;2024-02-26T12:05:59;100109.38;;;23.51;25.57
82672;BME280;72378;52.468;13.432;2024-02-26T12:08:27;100106.56;;;24.64;23.72
82672;BME280;72378;52.468;13.432;2024-02-26T12:10:54;100110.41;;;23.65;24.89
82672;BME280;72378;52.468;13.432;2024-02-26T12:13:29;100105.38;;;24.36;24.20
82672;BME280;72378;52.468;13.432;2024-02-26T12:15:57;100102.22;;;23.20;25.70
82672;BME280;72378;52.468;13.432;2024-02-26T12:18:24;100102.47;;;24.12;24.12
82672;BME280;72378;52.468;13.432;2024-02-26T12:20:58;100101.88;;;25.26;22.65
82672;BME280;72378;52.468;13.432;2024-02-26T12:23:26;100094.38;;;24.26;23.77
82672;BME280;72378;52.468;13.432;2024-02-26T12:25:53;100103.22;;;24.72;23.19
82672;BME280;72378;52.468;13.432;2024-02-26T12:28:20;100102.16;;;23.55;24.97
82672;BME280;72378;52.468;13.432;2024-02-26T12:30:46;100106.13;;;22.64;25.88
82672;BME280;72378;52.468;13.432;2024-02-26T12:33:13;100110.22;;;23.22;24.86
82672;BME280;72378;52.468;13.432;2024-02-26T12:35:39;100116.41;;;24.41;22.77
82672;BME280;72378;52.468;13.432;2024-02-26T12:38:07;100120.09;;;24.65;22.51
82672;BME280;72378;52.468;13.432;2024-02-26T12:40:34;100122.25;;;25.07;22.19
82672;BME280;72378;52.468;13.432;2024-02-26T12:43:00;100116.19;;;25.38;21.35
82672;BME280;72378;52.468;13.432;2024-02-26T12:45:28;100122.03;;;25.03;21.08
82672;BME280;72378;52.468;13.432;2024-02-26T12:47:54;100120.47;;;24.92;21.85